createdAt,value
2022-08-09T00:00:13.857Z,7.57
2022-08-09T00:02:47.315Z,10.02
2022-08-09T00:06:18.956Z,8.63
2022-08-09T00:08:09.672Z,7.10
2022-08-09T00:10:36.861Z,8.38
2022-08-09T00:13:17.652Z,8.95
2022-08-09T00:15:58.986Z,7.40
2022-08-09T00:18:29.028Z,8.43
2022-08-09T00:20:55.705Z,10.68
2022-08-09T00:23:56.056Z,8.40
2022-08-09T00:26:11.283Z,7.32
2022-08-09T00:28:40.092Z,10.27
2022-08-09T00:31:09.374Z,10.80
2022-08-09T00:33:55.127Z,8.40
2022-08-09T00:36:29.811Z,7.53
2022-08-09T00:38:57.978Z,9.25
2022-08-09T00:44:19.183Z,6.68
2022-08-09T00:46:56.865Z,8.95
2022-08-09T00:49:28.636Z,7.45
2022-08-09T00:52:05.278Z,7.82
2022-08-09T00:54:36.490Z,7.75
2022-08-09T00:57:10.764Z,7.72
2022-08-09T00:59:46.747Z,6.55
2022-08-09T01:02:21.071Z,6.13
2022-08-09T01:05:22.224Z,5.72
2022-08-09T01:08:25.766Z,6.80
2022-08-09T01:11:18.665Z,7.13
2022-08-09T01:14:00.034Z,10.40
2022-08-09T01:16:35.342Z,6.93
2022-08-09T01:19:17.064Z,8.27
2022-08-09T01:22:35.644Z,6.90
2022-08-09T01:25:24.882Z,8.15
2022-08-09T01:27:57.885Z,9.60
2022-08-09T01:30:35.772Z,7.07
2022-08-09T01:33:17.225Z,6.28
2022-08-09T01:35:43.657Z,7.93
2022-08-09T01:38:16.561Z,8.07
2022-08-09T01:41:17.161Z,6.80
2022-08-09T01:43:50.721Z,8.77
2022-08-09T01:46:26.806Z,8.05
2022-08-09T01:48:57.253Z,8.40
2022-08-09T01:51:32.472Z,8.95
2022-08-09T01:54:02.097Z,8.85
2022-08-09T01:56:33.228Z,8.48
2022-08-09T01:59:03.903Z,9.05
2022-08-09T02:01:59.230Z,8.57
2022-08-09T02:04:21.841Z,7.35
2022-08-09T02:07:18.286Z,7.35
2022-08-09T02:10:06.835Z,9.30
2022-08-09T02:12:35.565Z,7.03
2022-08-09T02:15:06.249Z,7.13
2022-08-09T02:18:09.956Z,10.00
2022-08-09T02:20:26.448Z,7.07
2022-08-09T02:23:08.994Z,9.45
2022-08-09T02:25:42.752Z,6.85
2022-08-09T02:28:29.503Z,7.30
2022-08-09T02:31:12.126Z,6.97
2022-08-09T02:34:06.629Z,10.75
2022-08-09T02:36:39.129Z,7.60
2022-08-09T02:39:33.443Z,6.63
2022-08-09T02:42:05.641Z,7.03
2022-08-09T02:44:37.344Z,8.75
2022-08-09T02:47:08.356Z,6.38
2022-08-09T02:50:01.822Z,10.48
2022-08-09T02:52:36.282Z,15.55
2022-08-09T02:55:20.821Z,14.60
2022-08-09T02:58:32.355Z,15.18
2022-08-09T03:00:57.669Z,13.07
2022-08-09T03:04:12.947Z,11.57
2022-08-09T03:06:15.994Z,10.68
2022-08-09T03:08:47.540Z,12.38
2022-08-09T03:11:30.112Z,11.18
2022-08-09T03:14:06.908Z,19.08
2022-08-09T03:16:37.404Z,11.57
2022-08-09T03:19:14.545Z,11.95
2022-08-09T03:21:57.936Z,12.43
2022-08-09T03:24:25.196Z,9.23
2022-08-09T03:27:10.739Z,9.70
2022-08-09T03:29:56.980Z,11.73
2022-08-09T03:32:26.137Z,9.85
2022-08-09T03:34:54.231Z,11.23
2022-08-09T03:37:56.206Z,11.68
2022-08-09T03:40:13.026Z,11.52
2022-08-09T03:42:43.086Z,12.25
2022-08-09T03:45:10.826Z,10.38
2022-08-09T03:47:40.244Z,10.50
2022-08-09T03:50:10.915Z,10.02
2022-08-09T03:52:40.573Z,9.27
2022-08-09T03:55:10.585Z,9.43
2022-08-09T03:57:53.674Z,9.90
2022-08-09T04:00:29.649Z,8.38
2022-08-09T04:02:58.705Z,8.73
2022-08-09T04:05:27.761Z,12.60
2022-08-09T04:07:57.170Z,8.38
2022-08-09T04:10:29.224Z,11.55
2022-08-09T04:13:01.102Z,14.60
2022-08-09T04:16:17.965Z,17.55
2022-08-09T04:18:19.213Z,14.52
2022-08-09T04:20:48.042Z,12.77
2022-08-09T04:23:16.580Z,8.45
2022-08-09T04:25:44.467Z,7.93
2022-08-09T04:28:16.589Z,8.63
